首页
METAR-TAF:

METAR-TAF

机场 :

莫斯科舍列梅季耶夫, 俄罗斯

谢列梅捷沃国际机场

纬度: 55-59N, 经度: 037-30E, 海拔: 190米

当前天气观测

该预报发布于20分钟前的22:00 UTC
风速6节,风向南转西南
温度 8°C
湿度 76%
气压 1002 hPa
能见度10公里或以上
1500米以下无云,无积雨云

METAR: UUEE 252200Z 20003MPS CAVOK 08/04 Q1002 R24L/290051 NOSIG

时间: 01:20 (22:20 UTC)

预报

该预报发布于2小时和21分钟前的19:59 UTC
预报有效从25日的 21点(UTC)到 26日的 21点(UTC)
风速10节,风向南转西南
能见度10公里或以上
散云层高于3000英尺
成为
从 26日的 02点(UTC)到 26日的 04点(UTC)
能見度: 6000
阴天层高于700英尺
小雨
短暂存在
从 26日的 06点(UTC)到 26日的 18点(UTC)
风速31节,风向多变
能見度: 2000
散云层高于500英尺
多云层高于1500英尺, 积雨云.
雷暴, 雨
从 26日的 1800点(UTC)
风速10节,风向西
能見度: 9000
散云层高于2000英尺

TAF: UUEE 251959Z 2521/2621 20005MPS 9999 SCT030 TX13/2612Z TN05/2603Z BECMG 2602/2604 6000 -RA OVC007 TEMPO 2606/2618 VRB16MPS 2000 TSRA SCT005 BKN015CB FM261800 26005MPS 9000 SCT020

超过4000个机场的气象观测和天气预报(METAR&TAF报告)。

可查询的气象台以黄色和红色小点在地图上表示。

将鼠标移到小点上方,可查看气象台名称。

然后点击查看天气观测和预报。

如需切换地图:点击带黑十字的绿色按钮放大地图;点击带横线的绿色按钮缩小地图;或者点击绿色箭头查看邻近地区的地图。


METAR-TAF: